Terminal Aerodrome Forecast
Issued by NWS Twin Cities, MN

Home | Current Version | Previous Version | Graphics & Text | Print | Product List | Glossary On
Versions: 1 2 3 4 5 6 7 8 9 10 11 12 13 14 15 16 17 18 19 20 21 22 23 24 25 26 27 28 29 30 31 32 33 34
000
FTUS43 KMPX 020310 AAA
TAFMSP
TAF AMD
KMSP 020310Z 0203/0306 17005KT P6SM BKN150 OVC250
      TEMPO 0208/0212 4SM -TSRA BKN050CB OVC100
     FM021200 16008KT P6SM BKN080
     FM022000 16011KT P6SM SCT050 PROB30 0221/0224 5SM -TSRA
      BKN050CB
     FM030200 15005KT P6SM SCT050=

USA.gov is the U.S. government's official web portal to all federal, state and local government web resources and services.